Littleport, United Kingdom
Current Conditions -  °F | °C
As of 2:08 AM on Sunday 26 Oct 2014 (Local Time) from EGUN Reporting Station
Scattered Clouds Scattered Clouds  
Wind Chill: 12°   Ceiling: Unl
Heat Index: 12°   Visibility: 6mi
Dew Point: 11°   Wind: 14mph
Humidity: 94%   Direction: 210°SSW
Pressure: 30.11"   Gusts: NA
Location:  52.46°N, 0.31°E
Report Text: EGUN 260108Z AUTO 21012KT 9999 SCT031 12/11 A3011 RMK AO2 $
Loading
Personal Weather Stations






























Interactive Weather Map
Tropical Storm Tracking
New forecast layout! Learn more

10-Day Weather Forecast

Advertisements
Track Severe Weather on mobile